createdAt,value
2023-03-29T05:05:15.602Z,420.00
2023-03-29T05:06:16.624Z,421.00
2023-03-29T05:08:15.719Z,422.00
2023-03-29T05:09:16.718Z,422.00
2023-03-29T05:11:15.722Z,425.00
2023-03-29T05:12:16.788Z,426.00
2023-03-29T05:13:16.847Z,427.00
2023-03-29T05:18:16.051Z,418.00
2023-03-29T05:19:17.116Z,418.00
2023-03-29T05:20:17.135Z,419.00
2023-03-29T05:22:16.176Z,416.00
2023-03-29T05:23:17.210Z,417.00
2023-03-29T05:24:17.226Z,436.00
2023-03-29T05:25:17.290Z,414.00
2023-03-29T05:26:17.317Z,420.00
2023-03-29T05:27:17.370Z,423.00
2023-03-29T05:28:17.432Z,422.00
2023-03-29T05:29:17.489Z,427.00
2023-03-29T05:30:17.550Z,428.00
2023-03-29T05:31:17.645Z,427.00
2023-03-29T05:32:17.641Z,429.00
2023-03-29T05:33:17.695Z,431.00
2023-03-29T05:34:17.714Z,432.00
2023-03-29T05:35:17.782Z,431.00
2023-03-29T05:38:16.828Z,435.00
2023-03-29T05:39:16.836Z,435.00
2023-03-29T05:40:17.848Z,434.00
2023-03-29T05:41:17.896Z,431.00
2023-03-29T05:42:17.869Z,428.00
2023-03-29T05:44:16.867Z,425.00
2023-03-29T05:45:17.853Z,425.00
2023-03-29T05:46:18.009Z,425.00
2023-03-29T05:49:16.866Z,426.00
2023-03-29T05:50:17.894Z,446.00
2023-03-29T05:51:17.950Z,432.00
2023-03-29T05:55:16.978Z,487.00
2023-03-29T05:56:18.009Z,500.00
2023-03-29T05:57:17.101Z,505.00
2023-03-29T05:58:18.095Z,519.00
2023-03-29T05:59:17.106Z,523.00
2023-03-29T06:00:17.127Z,531.00
2023-03-29T06:01:18.302Z,558.00
2023-03-29T06:03:21.170Z,592.00
2023-03-29T06:04:18.353Z,605.00
2023-03-29T06:05:18.273Z,617.00
2023-03-29T06:07:17.223Z,657.00
2023-03-29T06:10:17.165Z,725.00
2023-03-29T06:11:17.293Z,742.00
2023-03-29T06:12:18.165Z,753.00
2023-03-29T06:13:18.150Z,757.00
2023-03-29T06:14:17.148Z,769.00
2023-03-29T06:15:18.148Z,773.00
2023-03-29T06:16:17.201Z,779.00
2023-03-29T06:17:18.171Z,786.00
2023-03-29T06:19:17.137Z,797.00
2023-03-29T06:20:17.188Z,803.00
2023-03-29T06:21:17.211Z,811.00
2023-03-29T06:22:18.275Z,821.00
2023-03-29T06:23:18.352Z,830.00
2023-03-29T06:26:17.477Z,852.00
2023-03-29T06:27:18.551Z,858.00
2023-03-29T06:28:17.597Z,864.00
2023-03-29T06:29:17.646Z,870.00
2023-03-29T06:30:18.837Z,879.00
2023-03-29T06:31:18.842Z,887.00
2023-03-29T06:32:18.872Z,894.00
2023-03-29T06:33:18.930Z,928.00
2023-03-29T06:34:18.878Z,921.00
2023-03-29T06:35:18.887Z,916.00
2023-03-29T06:36:18.971Z,920.00
2023-03-29T06:37:18.931Z,929.00
2023-03-29T06:38:18.973Z,938.00
2023-03-29T06:39:19.059Z,947.00
2023-03-29T06:40:19.128Z,959.00
2023-03-29T06:41:19.191Z,974.00
2023-03-29T06:42:21.659Z,983.00
2023-03-29T06:43:19.228Z,988.00
2023-03-29T06:44:19.241Z,993.00
2023-03-29T06:48:18.170Z,1017.00
2023-03-29T06:49:19.253Z,1028.00
2023-03-29T06:53:18.155Z,1049.00
2023-03-29T06:54:18.145Z,1069.00
2023-03-29T06:55:19.178Z,1072.00
2023-03-29T06:56:19.121Z,1081.00
2023-03-29T06:57:19.345Z,1086.00
2023-03-29T06:58:19.113Z,1093.00
2023-03-29T06:59:19.114Z,1105.00
2023-03-29T07:02:18.077Z,1128.00
2023-03-29T07:03:18.055Z,1131.00
2023-03-29T07:04:19.125Z,1138.00
2023-03-29T07:05:19.069Z,1164.00
2023-03-29T07:07:18.028Z,1162.00
2023-03-29T07:09:19.432Z,1123.00
2023-03-29T07:10:17.998Z,1133.00
2023-03-29T07:11:19.069Z,1093.00
2023-03-29T07:12:18.123Z,1091.00
2023-03-29T07:13:19.051Z,971.00
2023-03-29T07:14:19.159Z,943.00
2023-03-29T07:15:19.097Z,937.00
2023-03-29T07:16:19.391Z,959.00
2023-03-29T07:17:19.184Z,977.00
2023-03-29T07:18:19.204Z,991.00
2023-03-29T07:19:19.278Z,1030.00
2023-03-29T07:22:18.418Z,1038.00
2023-03-29T07:23:18.473Z,1048.00
2023-03-29T07:24:19.546Z,1059.00
2023-03-29T07:25:19.619Z,1070.00
2023-03-29T07:26:28.705Z,1082.00
2023-03-29T07:27:19.667Z,1086.00
2023-03-29T07:28:18.628Z,1099.00
2023-03-29T07:29:19.627Z,1126.00
2023-03-29T07:30:19.660Z,1136.00
2023-03-29T07:31:19.623Z,1149.00
2023-03-29T07:34:18.599Z,1192.00
2023-03-29T07:35:19.582Z,1186.00
2023-03-29T07:36:19.638Z,1182.00
2023-03-29T07:37:19.585Z,1187.00
2023-03-29T07:38:19.739Z,1193.00
2023-03-29T07:42:18.554Z,1213.00
2023-03-29T07:43:19.594Z,1225.00
2023-03-29T07:44:19.544Z,1233.00
2023-03-29T07:45:19.516Z,1235.00
2023-03-29T07:46:19.789Z,1255.00
2023-03-29T07:47:19.834Z,1423.00
2023-03-29T07:48:19.504Z,1375.00
2023-03-29T07:52:18.851Z,1295.00
2023-03-29T07:53:19.527Z,1277.00
2023-03-29T07:54:18.532Z,1269.00
2023-03-29T07:55:19.589Z,1254.00
2023-03-29T07:56:19.652Z,1235.00
2023-03-29T08:00:18.982Z,1226.00
2023-03-29T08:01:19.672Z,1232.00
2023-03-29T08:02:19.978Z,1239.00
2023-03-29T08:03:20.118Z,1252.00
2023-03-29T08:04:20.210Z,1264.00
2023-03-29T08:06:19.150Z,1272.00
2023-03-29T08:07:20.206Z,1276.00
2023-03-29T08:08:19.245Z,1277.00
2023-03-29T08:09:20.316Z,1321.00
2023-03-29T08:10:20.364Z,1313.00
2023-03-29T08:11:20.414Z,1337.00
2023-03-29T08:12:21.598Z,1338.00
2023-03-29T08:13:20.467Z,1335.00
2023-03-29T08:15:19.469Z,1348.00
2023-03-29T08:16:22.471Z,1331.00
2023-03-29T08:19:19.429Z,1349.00
2023-03-29T08:20:20.412Z,1357.00
2023-03-29T08:22:19.407Z,1360.00
2023-03-29T08:23:20.408Z,1393.00
2023-03-29T08:26:19.380Z,1384.00
2023-03-29T08:27:20.375Z,1394.00
2023-03-29T08:30:19.370Z,1377.00
2023-03-29T08:31:20.563Z,1371.00
2023-03-29T08:33:19.380Z,1470.00
2023-03-29T08:34:20.319Z,1417.00
2023-03-29T08:36:19.348Z,1353.00
2023-03-29T08:37:20.319Z,1341.00
2023-03-29T08:41:19.293Z,1347.00
2023-03-29T08:42:20.366Z,1352.00
2023-03-29T08:43:20.308Z,1358.00
2023-03-29T08:44:20.263Z,1358.00
2023-03-29T08:48:19.235Z,1377.00
2023-03-29T08:49:20.245Z,1380.00
2023-03-29T08:53:19.208Z,1395.00
2023-03-29T08:54:20.175Z,1402.00
2023-03-29T08:57:19.215Z,1410.00
2023-03-29T08:58:20.477Z,1410.00
2023-03-29T08:59:20.144Z,1413.00
2023-03-29T09:03:19.256Z,1425.00
2023-03-29T09:04:19.100Z,1430.00
2023-03-29T09:06:19.099Z,1431.00
2023-03-29T09:07:19.104Z,1434.00
2023-03-29T09:08:20.090Z,1435.00
2023-03-29T09:09:20.139Z,1434.00
2023-03-29T09:10:20.159Z,1437.00
2023-03-29T09:11:20.194Z,1437.00
2023-03-29T09:12:20.244Z,1444.00
2023-03-29T09:13:20.358Z,1443.00
2023-03-29T09:14:20.271Z,1442.00
2023-03-29T09:16:19.333Z,1441.00
2023-03-29T09:17:20.279Z,1440.00
2023-03-29T09:19:19.302Z,1437.00
2023-03-29T09:20:19.321Z,1437.00
2023-03-29T09:21:20.328Z,1437.00
2023-03-29T09:22:20.362Z,1436.00
2023-03-29T09:23:20.369Z,1436.00
2023-03-29T09:24:20.446Z,1437.00
2023-03-29T09:26:19.460Z,1437.00
2023-03-29T09:27:20.523Z,1438.00
2023-03-29T09:29:19.499Z,1439.00
2023-03-29T09:32:19.485Z,1438.00
2023-03-29T09:33:20.534Z,1434.00
2023-03-29T09:34:20.545Z,1434.00
2023-03-29T09:35:20.640Z,1433.00
2023-03-29T09:37:19.612Z,1432.00
2023-03-29T09:38:20.650Z,1433.00
2023-03-29T09:40:19.656Z,1432.00
2023-03-29T09:41:20.777Z,1433.00
2023-03-29T09:42:20.698Z,1433.00
2023-03-29T09:43:20.719Z,1429.00
2023-03-29T09:44:30.169Z,1426.00
2023-03-29T09:45:20.766Z,1425.00
2023-03-29T09:46:19.785Z,1426.00
2023-03-29T09:47:20.740Z,1425.00
2023-03-29T09:49:19.711Z,1425.00
2023-03-29T09:50:30.747Z,1425.00
2023-03-29T09:51:20.727Z,1424.00
2023-03-29T09:52:20.707Z,1421.00
2023-03-29T09:53:20.891Z,1420.00
2023-03-29T09:55:19.703Z,1429.00
2023-03-29T09:56:20.669Z,1445.00
2023-03-29T10:01:19.694Z,1472.00
2023-03-29T10:03:19.630Z,1474.00
2023-03-29T10:04:19.678Z,1475.00
2023-03-29T10:05:20.640Z,1479.00
2023-03-29T10:09:19.585Z,1480.00
2023-03-29T10:10:20.573Z,1479.00
2023-03-29T10:11:20.616Z,1484.00
2023-03-29T10:15:29.206Z,1495.00
2023-03-29T10:16:20.632Z,1500.00
2023-03-29T10:17:20.618Z,1501.00
2023-03-29T10:19:19.515Z,1495.00
2023-03-29T10:20:20.536Z,1493.00
2023-03-29T10:21:20.785Z,1494.00
2023-03-29T10:25:19.500Z,1500.00
2023-03-29T10:26:20.469Z,1503.00
2023-03-29T10:27:20.495Z,1508.00
2023-03-29T10:29:19.479Z,1518.00
2023-03-29T10:32:19.458Z,1537.00
2023-03-29T10:33:20.431Z,1542.00
2023-03-29T10:34:20.415Z,1544.00
2023-03-29T10:36:19.471Z,1550.00
2023-03-29T10:37:20.452Z,1556.00
2023-03-29T10:38:20.444Z,1564.00
2023-03-29T10:39:20.445Z,1579.00
2023-03-29T10:41:19.443Z,1589.00
2023-03-29T10:42:20.375Z,1592.00
2023-03-29T10:43:20.394Z,1588.00
2023-03-29T10:44:21.207Z,1586.00
2023-03-29T10:45:20.438Z,1588.00
2023-03-29T10:46:20.596Z,1589.00
2023-03-29T10:47:20.516Z,1592.00
2023-03-29T10:48:20.527Z,1598.00
2023-03-29T10:49:19.916Z,1600.00
2023-03-29T10:50:20.590Z,1620.00
2023-03-29T10:51:20.596Z,1610.00
2023-03-29T10:52:20.579Z,1610.00
2023-03-29T10:53:20.576Z,1620.00
2023-03-29T10:54:20.590Z,1626.00
2023-03-29T10:55:20.656Z,1627.00
2023-03-29T10:56:20.654Z,1626.00
2023-03-29T10:57:22.794Z,1631.00
2023-03-29T10:58:20.691Z,1636.00
2023-03-29T11:01:19.665Z,1646.00
2023-03-29T11:02:20.665Z,1650.00
2023-03-29T11:03:21.592Z,1660.00
2023-03-29T11:04:20.634Z,1660.00
2023-03-29T11:05:20.648Z,1666.00
2023-03-29T11:10:19.781Z,1683.00
2023-03-29T11:11:20.861Z,1681.00
2023-03-29T11:12:20.901Z,1685.00
2023-03-29T11:13:20.946Z,1686.00
2023-03-29T11:14:21.034Z,1690.00
2023-03-29T11:15:20.084Z,1691.00
2023-03-29T11:16:21.215Z,1696.00
2023-03-29T11:17:21.210Z,1697.00
2023-03-29T11:18:21.258Z,1700.00
2023-03-29T11:19:21.325Z,1705.00
2023-03-29T11:20:21.375Z,1707.00
2023-03-29T11:21:21.421Z,1711.00
2023-03-29T11:22:21.490Z,1715.00
2023-03-29T11:23:21.516Z,1711.00
2023-03-29T11:25:20.556Z,1723.00
2023-03-29T11:26:21.595Z,1724.00
2023-03-29T11:27:20.671Z,1723.00
2023-03-29T11:28:21.727Z,1727.00
2023-03-29T11:29:21.853Z,1725.00
2023-03-29T11:30:21.850Z,1730.00
2023-03-29T11:34:20.916Z,1562.00
2023-03-29T11:35:21.899Z,1669.00
2023-03-29T11:36:21.991Z,1295.00
2023-03-29T11:37:22.000Z,1239.00
2023-03-29T11:38:22.036Z,1270.00
2023-03-29T11:39:22.417Z,1304.00
2023-03-29T11:42:21.101Z,1416.00
2023-03-29T11:43:22.105Z,1432.00
2023-03-29T11:44:22.085Z,1444.00
2023-03-29T11:45:21.058Z,1469.00
2023-03-29T11:46:22.147Z,1482.00
2023-03-29T11:47:22.107Z,1492.00
2023-03-29T11:48:22.178Z,1502.00
2023-03-29T11:49:22.197Z,1512.00
2023-03-29T11:50:22.220Z,1518.00
2023-03-29T11:51:22.292Z,1527.00
2023-03-29T11:52:22.341Z,1530.00
2023-03-29T11:53:22.403Z,1539.00
2023-03-29T11:54:22.462Z,1547.00
2023-03-29T11:55:22.540Z,1554.00
2023-03-29T11:56:22.578Z,1559.00
2023-03-29T11:57:21.721Z,1566.00
2023-03-29T11:58:22.697Z,1573.00
2023-03-29T11:59:22.772Z,1581.00
2023-03-29T12:00:22.830Z,1587.00
2023-03-29T12:01:22.909Z,1595.00
2023-03-29T12:02:23.004Z,1604.00
2023-03-29T12:03:23.113Z,1606.00
2023-03-29T12:04:25.196Z,1611.00
2023-03-29T12:07:22.074Z,1617.00
2023-03-29T12:08:23.033Z,1622.00
2023-03-29T12:10:22.025Z,1628.00
2023-03-29T12:11:23.028Z,1633.00
2023-03-29T12:12:23.006Z,1634.00
2023-03-29T12:14:22.020Z,1636.00
2023-03-29T12:15:23.008Z,1637.00
2023-03-29T12:17:22.027Z,1636.00
2023-03-29T12:18:22.973Z,1641.00
2023-03-29T12:19:22.001Z,1642.00
2023-03-29T12:20:22.939Z,1644.00
2023-03-29T12:21:22.969Z,1647.00
2023-03-29T12:22:22.936Z,1648.00
2023-03-29T12:25:23.370Z,1648.00
2023-03-29T12:26:22.902Z,1650.00
2023-03-29T12:27:22.913Z,1646.00
2023-03-29T12:28:23.026Z,1644.00
2023-03-29T12:29:23.035Z,1646.00
2023-03-29T12:30:23.068Z,1646.00
2023-03-29T12:31:23.191Z,1648.00
2023-03-29T12:32:23.213Z,1650.00
2023-03-29T12:33:23.315Z,1651.00
2023-03-29T12:34:22.312Z,1651.00
2023-03-29T12:35:23.378Z,1650.00
2023-03-29T12:36:22.434Z,1653.00
2023-03-29T12:37:23.553Z,1653.00
2023-03-29T12:38:23.562Z,1653.00
2023-03-29T12:39:23.648Z,1650.00
2023-03-29T12:40:23.671Z,1651.00
2023-03-29T12:41:22.741Z,1650.00
2023-03-29T12:42:23.794Z,1647.00
2023-03-29T12:43:23.877Z,1647.00
2023-03-29T12:47:23.134Z,1648.00
2023-03-29T12:48:24.159Z,1647.00
2023-03-29T12:49:24.230Z,1648.00
2023-03-29T12:50:24.315Z,1642.00
2023-03-29T12:51:24.389Z,1643.00
2023-03-29T12:52:23.388Z,1641.00
2023-03-29T12:53:24.473Z,1644.00
2023-03-29T12:54:26.812Z,1641.00
2023-03-29T12:55:24.558Z,1644.00
2023-03-29T12:56:23.512Z,1640.00
2023-03-29T12:57:24.566Z,1641.00
2023-03-29T13:00:23.511Z,1633.00
2023-03-29T13:03:23.517Z,1634.00
2023-03-29T13:04:24.471Z,1636.00
2023-03-29T13:08:23.453Z,1633.00
2023-03-29T13:13:23.480Z,1631.00
2023-03-29T13:14:24.525Z,1635.00
2023-03-29T13:15:24.584Z,1637.00
2023-03-29T13:16:24.706Z,1634.00
2023-03-29T13:17:24.844Z,1633.00
2023-03-29T13:18:23.743Z,1631.00
2023-03-29T13:19:24.826Z,1626.00
2023-03-29T13:20:24.880Z,1621.00
2023-03-29T13:21:24.948Z,1620.00
2023-03-29T13:22:24.983Z,1618.00
2023-03-29T13:23:25.057Z,1613.00
2023-03-29T13:24:25.092Z,1608.00
2023-03-29T13:25:25.145Z,1605.00
2023-03-29T13:26:25.205Z,1605.00
2023-03-29T13:27:25.253Z,1603.00
2023-03-29T13:28:25.325Z,1603.00
2023-03-29T13:29:25.385Z,1597.00
2023-03-29T13:30:25.467Z,1594.00
2023-03-29T13:31:25.508Z,1597.00
2023-03-29T13:32:25.593Z,1596.00
2023-03-29T13:33:25.613Z,1594.00
2023-03-29T13:36:24.807Z,1593.00
2023-03-29T13:37:25.856Z,1594.00
2023-03-29T13:38:25.937Z,1588.00
2023-03-29T13:39:25.954Z,1587.00
2023-03-29T13:40:26.023Z,1588.00
2023-03-29T13:41:26.086Z,1586.00
2023-03-29T13:42:26.146Z,1583.00
2023-03-29T13:43:26.201Z,1583.00
2023-03-29T13:44:26.235Z,1576.00
2023-03-29T13:45:26.241Z,1576.00
2023-03-29T13:46:28.027Z,1575.00
2023-03-29T13:47:26.268Z,1572.00
2023-03-29T13:48:26.279Z,1569.00
2023-03-29T13:49:26.247Z,1566.00
2023-03-29T13:51:25.250Z,1567.00
2023-03-29T13:52:26.211Z,1562.00
2023-03-29T13:54:25.199Z,1565.00
2023-03-29T13:55:26.200Z,1563.00
2023-03-29T14:00:25.479Z,1558.00
2023-03-29T14:01:26.182Z,1558.00
2023-03-29T14:02:25.222Z,1556.00
2023-03-29T14:03:26.206Z,1555.00
2023-03-29T14:04:26.162Z,1555.00
2023-03-29T14:09:25.113Z,1534.00
2023-03-29T14:10:25.153Z,1532.00
2023-03-29T14:11:26.087Z,1529.00
2023-03-29T14:12:26.068Z,1527.00
2023-03-29T14:13:26.072Z,1526.00
2023-03-29T14:16:25.082Z,1527.00
2023-03-29T14:17:26.063Z,1530.00
2023-03-29T14:18:26.028Z,1532.00
2023-03-29T14:22:25.007Z,1521.00
2023-03-29T14:23:26.028Z,1520.00
2023-03-29T14:29:25.656Z,1508.00
2023-03-29T14:30:25.963Z,1506.00
2023-03-29T14:31:26.042Z,1504.00
2023-03-29T14:32:24.967Z,1500.00
2023-03-29T14:33:25.938Z,1500.00
2023-03-29T14:37:24.900Z,1497.00
2023-03-29T14:38:25.896Z,1498.00
2023-03-29T14:39:25.936Z,1497.00
2023-03-29T14:41:24.882Z,1494.00
2023-03-29T14:42:25.938Z,1498.00
2023-03-29T14:47:24.893Z,1487.00
2023-03-29T14:48:24.886Z,1485.00
2023-03-29T14:49:25.880Z,1482.00
2023-03-29T14:50:25.888Z,1480.00
2023-03-29T14:53:24.863Z,1476.00
2023-03-29T14:54:25.858Z,1477.00
2023-03-29T14:55:25.917Z,1472.00
2023-03-29T14:56:25.868Z,1470.00
2023-03-29T15:02:25.023Z,1466.00
2023-03-29T15:03:25.984Z,1465.00
2023-03-29T15:04:25.858Z,1471.00
2023-03-29T15:05:25.867Z,1468.00
2023-03-29T15:11:24.907Z,1359.00
2023-03-29T15:12:25.905Z,1426.00
2023-03-29T15:13:25.960Z,1322.00
2023-03-29T15:14:25.983Z,1346.00
2023-03-29T15:15:26.197Z,1145.00
2023-03-29T15:16:26.116Z,797.00
2023-03-29T15:17:31.309Z,713.00
2023-03-29T15:22:25.098Z,598.00
2023-03-29T15:23:26.111Z,629.00
2023-03-29T15:26:25.105Z,713.00
2023-03-29T15:27:26.544Z,713.00
